createdAt,value
2016-05-10T00:00:17.283Z,0
2016-05-10T00:01:17.285Z,0
2016-05-10T00:02:17.319Z,0
2016-05-10T00:03:17.307Z,0
2016-05-10T00:04:17.153Z,0
2016-05-10T00:05:17.327Z,0
2016-05-10T00:06:17.174Z,0
2016-05-10T00:07:17.349Z,0
2016-05-10T00:08:17.367Z,0
2016-05-10T00:09:17.198Z,0
2016-05-10T00:10:17.357Z,0
2016-05-10T00:11:17.063Z,0
2016-05-10T00:12:17.405Z,0
2016-05-10T00:13:17.292Z,0
2016-05-10T00:14:17.883Z,0
2016-05-10T00:15:17.552Z,0
2016-05-10T00:16:17.424Z,0
2016-05-10T00:17:17.622Z,0
2016-05-10T00:18:17.655Z,0
2016-05-10T00:19:17.672Z,0
2016-05-10T00:20:17.705Z,0
2016-05-10T00:21:17.566Z,0
2016-05-10T00:22:17.562Z,0
2016-05-10T00:23:17.741Z,0
2016-05-10T00:24:17.750Z,0
2016-05-10T00:25:17.773Z,0
2016-05-10T00:26:17.781Z,0
2016-05-10T00:27:17.631Z,0
2016-05-10T00:28:17.667Z,0
2016-05-10T00:29:18.078Z,0
2016-05-10T00:30:17.817Z,0
2016-05-10T00:31:17.853Z,0
2016-05-10T00:32:17.856Z,0
2016-05-10T00:33:17.844Z,0
2016-05-10T00:34:17.847Z,0
2016-05-10T00:35:17.883Z,0
2016-05-10T00:36:17.729Z,0
2016-05-10T00:37:17.889Z,0
2016-05-10T00:38:17.721Z,0
2016-05-10T00:39:17.895Z,0
2016-05-10T00:40:17.569Z,0
2016-05-10T00:41:17.901Z,0
2016-05-10T00:42:17.919Z,0
2016-05-10T00:43:17.922Z,0
2016-05-10T00:44:17.924Z,0
2016-05-10T00:45:17.928Z,0
2016-05-10T00:46:17.946Z,0
2016-05-10T00:47:17.793Z,0
2016-05-10T00:48:17.952Z,0
2016-05-10T00:49:17.813Z,0
2016-05-10T00:50:17.660Z,0
2016-05-10T00:51:18.006Z,0
2016-05-10T00:52:17.977Z,0
2016-05-10T00:53:17.996Z,0
2016-05-10T00:54:17.999Z,0
2016-05-10T00:55:18.002Z,0
2016-05-10T00:56:17.863Z,0
2016-05-10T00:57:18.023Z,0
2016-05-10T00:58:18.025Z,0
2016-05-10T00:59:18.262Z,0
2016-05-10T01:00:18.031Z,0
2016-05-10T01:01:18.048Z,0
2016-05-10T01:02:18.067Z,0
2016-05-10T01:03:18.070Z,0
2016-05-10T01:04:17.901Z,0
2016-05-10T01:05:17.919Z,0
2016-05-10T01:06:18.078Z,0
2016-05-10T01:07:18.097Z,0
2016-05-10T01:08:18.083Z,0
2016-05-10T01:09:17.945Z,0
2016-05-10T01:10:17.964Z,0
2016-05-10T01:11:18.122Z,0
2016-05-10T01:12:18.125Z,0
2016-05-10T01:13:18.144Z,0
2016-05-10T01:14:18.178Z,0
2016-05-10T01:15:18.149Z,0
2016-05-10T01:16:18.152Z,0
2016-05-10T01:17:18.011Z,0
2016-05-10T01:18:18.170Z,0
2016-05-10T01:19:18.188Z,0
2016-05-10T01:20:18.207Z,0
2016-05-10T01:21:18.194Z,0
2016-05-10T01:22:18.196Z,0
2016-05-10T01:23:18.043Z,0
2016-05-10T01:24:18.218Z,0
2016-05-10T01:25:18.064Z,0
2016-05-10T01:26:18.223Z,0
2016-05-10T01:27:18.226Z,0
2016-05-10T01:28:17.931Z,0
2016-05-10T01:29:18.781Z,0
2016-05-10T01:30:18.249Z,0
2016-05-10T01:31:18.251Z,0
2016-05-10T01:32:18.270Z,0
2016-05-10T01:33:18.132Z,0
2016-05-10T01:34:18.135Z,0
2016-05-10T01:35:18.294Z,0
2016-05-10T01:36:18.297Z,0
2016-05-10T01:37:18.159Z,0
2016-05-10T01:38:18.005Z,0
2016-05-10T01:39:18.320Z,0
2016-05-10T01:40:18.183Z,0
2016-05-10T01:41:18.326Z,0
2016-05-10T01:42:18.188Z,0
2016-05-10T01:43:18.347Z,0
2016-05-10T01:44:18.364Z,0
2016-05-10T01:45:18.649Z,0
2016-05-10T01:46:18.370Z,0
2016-05-10T01:47:18.233Z,0
2016-05-10T01:48:18.251Z,0
2016-05-10T01:49:18.394Z,0
2016-05-10T01:50:18.396Z,0
2016-05-10T01:51:18.415Z,0
2016-05-10T01:52:18.402Z,0
2016-05-10T01:53:18.421Z,0
2016-05-10T01:54:18.439Z,0
2016-05-10T01:55:18.301Z,0
2016-05-10T01:56:18.429Z,0
2016-05-10T01:57:18.462Z,0
2016-05-10T01:58:18.466Z,0
2016-05-10T01:59:20.424Z,0
2016-05-10T02:00:18.487Z,0
2016-05-10T02:01:18.473Z,0
2016-05-10T02:02:18.492Z,0
2016-05-10T02:03:18.494Z,0
2016-05-10T02:04:18.512Z,0
2016-05-10T02:05:18.359Z,0
2016-05-10T02:06:18.362Z,0
2016-05-10T02:07:18.537Z,0
2016-05-10T02:08:18.383Z,0
2016-05-10T02:09:18.525Z,0
2016-05-10T02:10:18.388Z,0
2016-05-10T02:11:18.547Z,0
2016-05-10T02:12:18.565Z,0
2016-05-10T02:13:18.553Z,0
2016-05-10T02:14:18.508Z,0
2016-05-10T02:15:18.417Z,0
2016-05-10T02:16:18.575Z,0
2016-05-10T02:17:18.594Z,0
2016-05-10T02:18:18.613Z,0
2016-05-10T02:19:18.616Z,0
2016-05-10T02:20:18.602Z,0
2016-05-10T02:21:18.621Z,0
2016-05-10T02:22:18.624Z,0
2016-05-10T02:23:18.657Z,0
2016-05-10T02:24:18.644Z,0
2016-05-10T02:25:18.522Z,0
2016-05-10T02:26:18.650Z,0
2016-05-10T02:27:18.496Z,0
2016-05-10T02:28:18.515Z,0
2016-05-10T02:29:18.783Z,0
2016-05-10T02:30:18.692Z,0
2016-05-10T02:31:18.538Z,0
2016-05-10T02:32:18.697Z,0
2016-05-10T02:33:18.700Z,0
2016-05-10T02:34:18.703Z,0
2016-05-10T02:35:18.565Z,0
2016-05-10T02:36:18.724Z,0
2016-05-10T02:37:18.726Z,0
2016-05-10T02:38:18.588Z,0
2016-05-10T02:39:18.747Z,0
2016-05-10T02:40:18.750Z,0
2016-05-10T02:41:18.768Z,0
2016-05-10T02:42:18.600Z,0
2016-05-10T02:43:18.492Z,0
2016-05-10T02:44:18.480Z,0
2016-05-10T02:45:18.638Z,0
2016-05-10T02:46:18.798Z,0
2016-05-10T02:47:18.800Z,0
2016-05-10T02:48:18.818Z,0
2016-05-10T02:49:18.837Z,0
2016-05-10T02:50:18.824Z,0
2016-05-10T02:51:18.669Z,0
2016-05-10T02:52:18.845Z,0
2016-05-10T02:53:18.691Z,0
2016-05-10T02:54:18.694Z,0
2016-05-10T02:55:18.713Z,0
2016-05-10T02:56:18.887Z,0
2016-05-10T02:57:18.874Z,0
2016-05-10T02:58:18.720Z,0
2016-05-10T02:59:18.895Z,0
2016-05-10T03:00:18.726Z,0
2016-05-10T03:01:18.728Z,0
2016-05-10T03:02:18.919Z,0
2016-05-10T03:03:18.921Z,0
2016-05-10T03:04:18.924Z,0
2016-05-10T03:05:18.926Z,0
2016-05-10T03:06:18.960Z,0
2016-05-10T03:07:18.948Z,0
2016-05-10T03:08:18.950Z,0
2016-05-10T03:09:18.640Z,0
2016-05-10T03:10:18.971Z,0
2016-05-10T03:11:18.973Z,0
2016-05-10T03:12:18.664Z,0
2016-05-10T03:13:18.995Z,0
2016-05-10T03:14:19.014Z,0
2016-05-10T03:15:19.000Z,0
2016-05-10T03:16:18.847Z,0
2016-05-10T03:17:19.036Z,0
2016-05-10T03:18:19.025Z,0
2016-05-10T03:19:19.027Z,0
2016-05-10T03:20:19.029Z,0
2016-05-10T03:21:19.064Z,0
2016-05-10T03:22:19.050Z,0
2016-05-10T03:23:19.052Z,0
2016-05-10T03:24:19.071Z,4
2016-05-10T03:25:18.933Z,4
2016-05-10T03:26:18.921Z,0
2016-05-10T03:27:18.939Z,0
2016-05-10T03:28:19.098Z,0
2016-05-10T03:29:19.288Z,4
2016-05-10T03:30:19.104Z,4
2016-05-10T03:31:19.121Z,0
2016-05-10T03:32:19.109Z,0
2016-05-10T03:33:19.143Z,4
2016-05-10T03:34:19.145Z,0
2016-05-10T03:35:19.148Z,0
2016-05-10T03:36:18.995Z,4
2016-05-10T03:37:19.153Z,4
2016-05-10T03:38:19.157Z,0
2016-05-10T03:39:19.017Z,4
2016-05-10T03:40:19.192Z,8
2016-05-10T03:41:19.023Z,8
2016-05-10T03:42:19.042Z,8
2016-05-10T03:43:19.201Z,8
2016-05-10T03:44:19.609Z,8
2016-05-10T03:45:19.222Z,8
2016-05-10T03:46:18.897Z,8
2016-05-10T03:47:19.211Z,12
2016-05-10T03:48:19.230Z,8
2016-05-10T03:49:19.076Z,8
2016-05-10T03:50:19.095Z,12
2016-05-10T03:51:19.253Z,12
2016-05-10T03:52:19.115Z,12
2016-05-10T03:53:19.258Z,16
2016-05-10T03:54:19.152Z,16
2016-05-10T03:55:19.280Z,16
2016-05-10T03:56:19.002Z,20
2016-05-10T03:57:19.130Z,16
2016-05-10T03:58:19.163Z,20
2016-05-10T03:59:20.118Z,24
2016-05-10T04:00:19.324Z,20
2016-05-10T04:01:19.155Z,24
2016-05-10T04:02:19.361Z,24
2016-05-10T04:03:19.332Z,24
2016-05-10T04:04:19.226Z,28
2016-05-10T04:05:19.337Z,32
2016-05-10T04:06:19.356Z,32
2016-05-10T04:07:19.359Z,36
2016-05-10T04:08:19.362Z,40
2016-05-10T04:09:19.365Z,44
2016-05-10T04:10:19.398Z,44
2016-05-10T04:11:19.510Z,44
2016-05-10T04:12:19.404Z,48
2016-05-10T04:13:19.094Z,48
2016-05-10T04:14:19.581Z,52
2016-05-10T04:15:19.428Z,56
2016-05-10T04:16:19.445Z,56
2016-05-10T04:17:19.276Z,56
2016-05-10T04:18:19.436Z,60
2016-05-10T04:19:19.281Z,60
2016-05-10T04:20:19.456Z,60
2016-05-10T04:21:19.458Z,64
2016-05-10T04:22:19.493Z,68
2016-05-10T04:23:19.324Z,68
2016-05-10T04:24:19.327Z,72
2016-05-10T04:25:19.502Z,76
2016-05-10T04:26:19.489Z,84
2016-05-10T04:27:19.335Z,88
2016-05-10T04:28:19.493Z,100
2016-05-10T04:29:19.402Z,108
2016-05-10T04:30:19.515Z,120
2016-05-10T04:31:19.533Z,120
2016-05-10T04:32:19.396Z,124
2016-05-10T04:33:19.538Z,132
2016-05-10T04:34:19.540Z,132
2016-05-10T04:35:19.404Z,136
2016-05-10T04:36:19.406Z,148
2016-05-10T04:37:19.580Z,152
2016-05-10T04:38:19.568Z,156
2016-05-10T04:39:19.585Z,168
2016-05-10T04:40:19.604Z,180
2016-05-10T04:41:19.590Z,196
2016-05-10T04:42:19.453Z,208
2016-05-10T04:43:19.471Z,216
2016-05-10T04:44:19.631Z,224
2016-05-10T04:45:19.462Z,228
2016-05-10T04:46:19.479Z,240
2016-05-10T04:47:19.638Z,252
2016-05-10T04:48:19.484Z,264
2016-05-10T04:49:19.659Z,284
2016-05-10T04:50:19.490Z,300
2016-05-10T04:51:19.493Z,320
2016-05-10T04:52:19.667Z,356
2016-05-10T04:53:19.669Z,380
2016-05-10T04:54:19.688Z,400
2016-05-10T04:55:19.535Z,404
2016-05-10T04:56:19.710Z,424
2016-05-10T04:57:19.696Z,452
2016-05-10T04:58:19.559Z,484
2016-05-10T04:59:20.030Z,516
2016-05-10T05:00:19.564Z,576
2016-05-10T05:01:19.724Z,596
2016-05-10T05:02:19.741Z,612
2016-05-10T05:03:19.604Z,664
2016-05-10T05:04:19.606Z,704
2016-05-10T05:05:19.593Z,720
2016-05-10T05:06:19.768Z,744
2016-05-10T05:07:19.770Z,852
2016-05-10T05:08:19.773Z,880
2016-05-10T05:09:19.791Z,920
2016-05-10T05:10:19.653Z,976
2016-05-10T05:11:19.641Z,1128
2016-05-10T05:12:19.659Z,1080
2016-05-10T05:13:19.817Z,1236
2016-05-10T05:14:20.399Z,1376
2016-05-10T05:15:19.839Z,1244
2016-05-10T05:16:19.841Z,1112
2016-05-10T05:17:19.845Z,1116
2016-05-10T05:18:19.706Z,1192
2016-05-10T05:19:19.709Z,1240
2016-05-10T05:20:19.711Z,1356
2016-05-10T05:21:19.714Z,1844
2016-05-10T05:22:19.576Z,2324
2016-05-10T05:23:19.875Z,2532
2016-05-10T05:24:19.894Z,2712
2016-05-10T05:25:19.913Z,2652
2016-05-10T05:26:19.759Z,2468
2016-05-10T05:27:19.918Z,2320
2016-05-10T05:28:19.921Z,2064
2016-05-10T05:29:20.938Z,2336
2016-05-10T05:30:19.941Z,2320
2016-05-10T05:31:19.788Z,2332
2016-05-10T05:32:19.977Z,2328
2016-05-10T05:33:19.810Z,2432
2016-05-10T05:34:19.969Z,2404
2016-05-10T05:35:19.971Z,2384
2016-05-10T05:36:19.848Z,2592
2016-05-10T05:37:20.007Z,2892
2016-05-10T05:38:19.994Z,3476
2016-05-10T05:39:20.012Z,3632
2016-05-10T05:40:20.015Z,3640
2016-05-10T05:41:20.034Z,3724
2016-05-10T05:42:20.037Z,3832
2016-05-10T05:43:20.461Z,3636
2016-05-10T05:44:20.385Z,3688
2016-05-10T05:45:20.060Z,4004
2016-05-10T05:46:20.062Z,4044
2016-05-10T05:47:20.081Z,4288
2016-05-10T05:48:19.756Z,4340
2016-05-10T05:49:19.930Z,4324
2016-05-10T05:50:20.090Z,4440
2016-05-10T05:51:20.108Z,4772
2016-05-10T05:52:20.110Z,5520
2016-05-10T05:53:20.113Z,5460
2016-05-10T05:54:20.131Z,6076
2016-05-10T05:55:20.133Z,6384
2016-05-10T05:56:19.855Z,6552
2016-05-10T05:57:20.139Z,6004
2016-05-10T05:58:20.157Z,5656
2016-05-10T05:59:20.207Z,5848
2016-05-10T06:00:20.163Z,6628
2016-05-10T06:01:20.041Z,7052
2016-05-10T06:02:20.058Z,7068
2016-05-10T06:03:20.202Z,7592
2016-05-10T06:04:20.221Z,7760
2016-05-10T06:05:20.224Z,7616
2016-05-10T06:06:20.226Z,7504
2016-05-10T06:07:19.932Z,6840
2016-05-10T06:08:20.091Z,6644
2016-05-10T06:09:20.110Z,6552
2016-05-10T06:10:20.267Z,6156
2016-05-10T06:11:20.286Z,6376
2016-05-10T06:12:20.117Z,7504
2016-05-10T06:13:20.292Z,8356
2016-05-10T06:14:20.154Z,9204
2016-05-10T06:15:20.157Z,9736
2016-05-10T06:16:20.159Z,9032
2016-05-10T06:17:20.333Z,7260
2016-05-10T06:18:20.180Z,10312
2016-05-10T06:19:20.339Z,9392
2016-05-10T06:20:20.342Z,8340
2016-05-10T06:21:20.360Z,8068
2016-05-10T06:22:20.379Z,9660
2016-05-10T06:23:20.381Z,10240
2016-05-10T06:24:20.384Z,11120
2016-05-10T06:25:20.386Z,12172
2016-05-10T06:26:20.264Z,13548
2016-05-10T06:27:20.250Z,15136
2016-05-10T06:28:20.426Z,15776
2016-05-10T06:29:20.288Z,13616
2016-05-10T06:30:20.447Z,13328
2016-05-10T06:31:20.449Z,13300
2016-05-10T06:32:20.469Z,16096
2016-05-10T06:33:20.470Z,15440
2016-05-10T06:34:20.316Z,14096
2016-05-10T06:35:20.335Z,15476
2016-05-10T06:36:20.494Z,15340
2016-05-10T06:37:20.512Z,17792
2016-05-10T06:38:20.516Z,16256
2016-05-10T06:39:20.533Z,13796
2016-05-10T06:40:20.535Z,12664
2016-05-10T06:41:20.382Z,12172
2016-05-10T06:42:20.557Z,12724
2016-05-10T06:43:20.435Z,9880
2016-05-10T06:44:20.547Z,9632
2016-05-10T06:45:20.440Z,9204
2016-05-10T06:46:20.599Z,9260
2016-05-10T06:47:20.305Z,9204
2016-05-10T06:48:20.604Z,8836
2016-05-10T06:49:20.623Z,8744
2016-05-10T06:50:20.626Z,8888
2016-05-10T06:51:20.644Z,9016
2016-05-10T06:52:20.647Z,8748
2016-05-10T06:53:20.650Z,9532
2016-05-10T06:54:20.668Z,10712
2016-05-10T06:55:20.670Z,10808
2016-05-10T06:56:20.688Z,12456
2016-05-10T06:57:20.535Z,11692
2016-05-10T06:58:20.709Z,11244
2016-05-10T06:59:20.572Z,9268
2016-05-10T07:00:20.730Z,9684
2016-05-10T07:01:20.577Z,10028
2016-05-10T07:02:20.751Z,7292
2016-05-10T07:03:20.770Z,7744
2016-05-10T07:04:20.757Z,5512
2016-05-10T07:05:20.760Z,5060
2016-05-10T07:06:20.777Z,4628
2016-05-10T07:07:20.780Z,5476
2016-05-10T07:08:20.643Z,5600
2016-05-10T07:09:20.660Z,9036
2016-05-10T07:10:20.821Z,7692
2016-05-10T07:11:20.666Z,6320
2016-05-10T07:12:20.840Z,5596
2016-05-10T07:13:20.843Z,6048
2016-05-10T07:14:20.737Z,4484
2016-05-10T07:15:20.849Z,4424
2016-05-10T07:16:20.883Z,4132
2016-05-10T07:17:20.885Z,3820
2016-05-10T07:18:20.888Z,3968
2016-05-10T07:19:20.734Z,3320
2016-05-10T07:20:20.910Z,3244
2016-05-10T07:21:20.912Z,3120
2016-05-10T07:22:20.930Z,2872
2016-05-10T07:23:20.933Z,2776
2016-05-10T07:24:20.936Z,2704
2016-05-10T07:25:20.970Z,2752
2016-05-10T07:26:20.801Z,2772
2016-05-10T07:27:20.803Z,2724
2016-05-10T07:28:20.978Z,2680
2016-05-10T07:29:21.308Z,2604
2016-05-10T07:30:20.842Z,2556
2016-05-10T07:31:21.001Z,2488
2016-05-10T07:32:20.863Z,2408
2016-05-10T07:33:21.022Z,2320
2016-05-10T07:34:21.025Z,2240
2016-05-10T07:35:20.731Z,2188
2016-05-10T07:36:21.046Z,2160
2016-05-10T07:37:21.064Z,2136
2016-05-10T07:38:21.066Z,2116
2016-05-10T07:39:21.069Z,2120
2016-05-10T07:40:20.932Z,2164
2016-05-10T07:41:21.090Z,2212
2016-05-10T07:42:21.093Z,2268
2016-05-10T07:43:21.112Z,2332
2016-05-10T07:44:21.677Z,2408
2016-05-10T07:45:21.086Z,2476
2016-05-10T07:46:21.245Z,2528
2016-05-10T07:47:21.170Z,2564
2016-05-10T07:48:21.000Z,2592
2016-05-10T07:49:21.159Z,2620
2016-05-10T07:50:21.318Z,2648
2016-05-10T07:51:21.009Z,2652
2016-05-10T07:52:20.870Z,2652
2016-05-10T07:53:21.029Z,2644
2016-05-10T07:54:21.204Z,2620
2016-05-10T07:55:21.207Z,2588
2016-05-10T07:56:21.069Z,2560
2016-05-10T07:57:21.072Z,2536
2016-05-10T07:58:21.245Z,2516
2016-05-10T07:59:21.295Z,2504
2016-05-10T08:00:21.111Z,2508
2016-05-10T08:01:21.253Z,2536
2016-05-10T08:02:21.100Z,2576
2016-05-10T08:03:21.275Z,2628
2016-05-10T08:04:21.308Z,2672
2016-05-10T08:05:21.280Z,2708
2016-05-10T08:06:21.299Z,2728
2016-05-10T08:07:21.161Z,2744
2016-05-10T08:08:21.163Z,2772
2016-05-10T08:09:21.322Z,2816
2016-05-10T08:10:21.013Z,2864
2016-05-10T08:11:21.343Z,2908
2016-05-10T08:12:21.033Z,2944
2016-05-10T08:13:21.349Z,2952
2016-05-10T08:14:21.226Z,2940
2016-05-10T08:15:21.229Z,2916
2016-05-10T08:16:21.216Z,2888
2016-05-10T08:17:21.390Z,2884
2016-05-10T08:18:21.393Z,2876
2016-05-10T08:19:21.099Z,2876
2016-05-10T08:20:21.415Z,2880
2016-05-10T08:21:21.417Z,2900
2016-05-10T08:22:21.279Z,2932
2016-05-10T08:23:21.470Z,2956
2016-05-10T08:24:21.457Z,2952
2016-05-10T08:25:21.459Z,2928
2016-05-10T08:26:21.461Z,2916
2016-05-10T08:27:21.308Z,2912
2016-05-10T08:28:21.483Z,2900
2016-05-10T08:29:22.236Z,2880
2016-05-10T08:30:21.410Z,2864
2016-05-10T08:31:21.350Z,2844
2016-05-10T08:32:21.509Z,2832
2016-05-10T08:33:21.371Z,2828
2016-05-10T08:34:21.531Z,2824
2016-05-10T08:35:21.549Z,2816
2016-05-10T08:36:21.394Z,2816
2016-05-10T08:37:21.585Z,2828
2016-05-10T08:38:21.572Z,2836
2016-05-10T08:39:21.574Z,2848
2016-05-10T08:40:21.577Z,2852
2016-05-10T08:41:21.596Z,2852
2016-05-10T08:42:21.598Z,2856
2016-05-10T08:43:21.601Z,2856
2016-05-10T08:44:21.807Z,2880
2016-05-10T08:45:21.638Z,2896
2016-05-10T08:46:21.656Z,2884
2016-05-10T08:47:21.659Z,2864
2016-05-10T08:48:21.646Z,2872
2016-05-10T08:49:21.665Z,2844
2016-05-10T08:50:21.667Z,2832
2016-05-10T08:51:21.685Z,2884
2016-05-10T08:52:21.688Z,2876
2016-05-10T08:53:21.551Z,2836
2016-05-10T08:54:21.396Z,2916
2016-05-10T08:55:21.556Z,2916
2016-05-10T08:56:21.559Z,2884
2016-05-10T08:57:21.733Z,2924
2016-05-10T08:58:21.423Z,2916
2016-05-10T08:59:21.909Z,2892
2016-05-10T09:00:21.756Z,2832
2016-05-10T09:01:21.759Z,2800
2016-05-10T09:02:21.777Z,2804
2016-05-10T09:03:21.327Z,2796
2016-05-10T09:04:21.626Z,2772
2016-05-10T09:05:21.644Z,2760
2016-05-10T09:06:21.804Z,2740
2016-05-10T09:07:21.806Z,2732
2016-05-10T09:08:21.825Z,2740
2016-05-10T09:09:21.828Z,2752
2016-05-10T09:10:21.846Z,2768
2016-05-10T09:11:21.849Z,2792
2016-05-10T09:12:21.852Z,2840
2016-05-10T09:13:33.385Z,2872
2016-05-10T09:14:22.747Z,2900
2016-05-10T09:15:23.953Z,2912
2016-05-10T09:16:22.112Z,2924
2016-05-10T09:17:21.755Z,2948
2016-05-10T09:18:21.743Z,2996
2016-05-10T09:19:21.938Z,3048
2016-05-10T09:20:22.014Z,3076
2016-05-10T09:21:21.902Z,3060
2016-05-10T09:22:22.102Z,3128
2016-05-10T09:23:22.162Z,3172
2016-05-10T09:24:24.697Z,3176
2016-05-10T09:25:22.215Z,3104
2016-05-10T09:26:22.062Z,3072
2016-05-10T09:27:22.251Z,3080
2016-05-10T09:28:22.112Z,3184
2016-05-10T09:29:22.293Z,3172
2016-05-10T09:30:22.474Z,3144
2016-05-10T09:31:22.309Z,3004
2016-05-10T09:32:22.177Z,2940
2016-05-10T09:33:22.356Z,2976
2016-05-10T09:34:22.034Z,3084
2016-05-10T09:35:22.351Z,3008
2016-05-10T09:36:22.370Z,3112
2016-05-10T09:37:22.375Z,3164
2016-05-10T09:38:22.380Z,3252
2016-05-10T09:39:22.399Z,3244
2016-05-10T09:40:22.262Z,3240
2016-05-10T09:41:22.437Z,3256
2016-05-10T09:42:22.426Z,3264
2016-05-10T09:43:22.430Z,3232
2016-05-10T09:44:23.416Z,3228
2016-05-10T09:45:22.451Z,3212
2016-05-10T09:46:22.469Z,3204
2016-05-10T09:47:22.473Z,3184
2016-05-10T09:48:22.491Z,3176
2016-05-10T09:49:22.353Z,3132
2016-05-10T09:50:22.356Z,3100
2016-05-10T09:51:22.514Z,3080
2016-05-10T09:52:22.517Z,3088
2016-05-10T09:53:22.536Z,3096
2016-05-10T09:54:22.382Z,3068
2016-05-10T09:55:22.556Z,3056
2016-05-10T09:56:22.559Z,3060
2016-05-10T09:57:22.406Z,3004
2016-05-10T09:58:22.580Z,3000
2016-05-10T09:59:22.521Z,2856
2016-05-10T10:00:22.586Z,2940
2016-05-10T10:01:22.605Z,2996
2016-05-10T10:02:22.607Z,2932
2016-05-10T10:03:22.610Z,3008
2016-05-10T10:04:22.675Z,2972
2016-05-10T10:05:22.630Z,3016
2016-05-10T10:06:22.664Z,3008
2016-05-10T10:07:22.480Z,2952
2016-05-10T10:08:22.638Z,2892
2016-05-10T10:09:22.673Z,2872
2016-05-10T10:10:22.675Z,2884
2016-05-10T10:11:22.694Z,2868
2016-05-10T10:12:22.713Z,2860
2016-05-10T10:13:22.543Z,2860
2016-05-10T10:14:22.749Z,2848
2016-05-10T10:15:22.720Z,2844
2016-05-10T10:16:22.738Z,2832
2016-05-10T10:17:22.585Z,2832
2016-05-10T10:18:22.759Z,2816
2016-05-10T10:19:22.762Z,2796
2016-05-10T10:20:22.592Z,2784
2016-05-10T10:21:22.768Z,2808
2016-05-10T10:22:22.786Z,2816
2016-05-10T10:23:22.789Z,2808
2016-05-10T10:24:22.806Z,2736
2016-05-10T10:25:22.670Z,2720
2016-05-10T10:26:22.812Z,2680
2016-05-10T10:27:22.815Z,2588
2016-05-10T10:28:22.834Z,2600
2016-05-10T10:29:22.914Z,2568
2016-05-10T10:30:22.839Z,2552
2016-05-10T10:31:22.856Z,2536
2016-05-10T10:32:22.859Z,2536
2016-05-10T10:33:22.862Z,2500
2016-05-10T10:34:22.880Z,2504
2016-05-10T10:35:22.883Z,2520
2016-05-10T10:36:22.933Z,2512
2016-05-10T10:37:22.935Z,2536
2016-05-10T10:38:22.907Z,2564
2016-05-10T10:39:22.925Z,2528
2016-05-10T10:40:22.927Z,2468
2016-05-10T10:41:22.931Z,2472
2016-05-10T10:42:22.793Z,2452
2016-05-10T10:43:22.655Z,2416
2016-05-10T10:44:23.017Z,2424
2016-05-10T10:45:22.973Z,2464
2016-05-10T10:46:22.976Z,2428
2016-05-10T10:47:22.994Z,2420
2016-05-10T10:48:22.996Z,2432
2016-05-10T10:49:23.014Z,2416
2016-05-10T10:50:23.018Z,2416
2016-05-10T10:51:23.036Z,2416
2016-05-10T10:52:22.570Z,2412
2016-05-10T10:53:22.885Z,2420
2016-05-10T10:54:23.043Z,2432
2016-05-10T10:55:23.046Z,2428
2016-05-10T10:56:23.064Z,2444
2016-05-10T10:57:23.083Z,2456
2016-05-10T10:58:23.070Z,2432
2016-05-10T10:59:23.526Z,2428
2016-05-10T11:00:22.935Z,2416
2016-05-10T11:01:23.109Z,2412
2016-05-10T11:02:22.831Z,2396
2016-05-10T11:03:22.975Z,2384
2016-05-10T11:04:23.134Z,2376
2016-05-10T11:05:23.152Z,2356
2016-05-10T11:06:22.998Z,2348
2016-05-10T11:07:23.172Z,2356
2016-05-10T11:08:23.019Z,2340
2016-05-10T11:09:23.021Z,2340
2016-05-10T11:10:23.180Z,2320
2016-05-10T11:11:23.183Z,2324
2016-05-10T11:12:23.264Z,2324
2016-05-10T11:13:23.048Z,2336
2016-05-10T11:14:23.082Z,2332
2016-05-10T11:15:23.069Z,2340
2016-05-10T11:16:23.227Z,2320
2016-05-10T11:17:23.230Z,2332
2016-05-10T11:18:23.265Z,2348
2016-05-10T11:19:22.986Z,2348
2016-05-10T11:20:23.270Z,2360
2016-05-10T11:21:23.288Z,2356
2016-05-10T11:22:23.291Z,2352
2016-05-10T11:23:23.294Z,2336
2016-05-10T11:24:23.312Z,2336
2016-05-10T11:25:23.002Z,2320
2016-05-10T11:26:23.318Z,2344
2016-05-10T11:27:23.336Z,2364
2016-05-10T11:28:23.214Z,2356
2016-05-10T11:29:23.201Z,2372
2016-05-10T11:30:23.344Z,2360
2016-05-10T11:31:23.362Z,2340
2016-05-10T11:32:23.224Z,2336
2016-05-10T11:33:23.227Z,2328
2016-05-10T11:34:23.244Z,2336
2016-05-10T11:35:23.388Z,2320
2016-05-10T11:36:23.406Z,2344
2016-05-10T11:37:23.253Z,2336
2016-05-10T11:38:23.271Z,2312
2016-05-10T11:39:23.430Z,2308
2016-05-10T11:40:23.308Z,2308
2016-05-10T11:41:23.295Z,2320
2016-05-10T11:42:23.298Z,2288
2016-05-10T11:43:23.316Z,2272
2016-05-10T11:44:24.131Z,2276
2016-05-10T11:45:24.197Z,2248
2016-05-10T11:46:23.497Z,2240
2016-05-10T11:47:23.343Z,2212
2016-05-10T11:48:23.502Z,2200
2016-05-10T11:49:23.410Z,2856
2016-05-10T11:50:23.366Z,2852
2016-05-10T11:51:23.526Z,2848
2016-05-10T11:52:23.543Z,2820
2016-05-10T11:53:23.546Z,2804
2016-05-10T11:54:23.565Z,2784
2016-05-10T11:55:23.551Z,2772
2016-05-10T11:56:23.554Z,2748
2016-05-10T11:57:23.417Z,2712
2016-05-10T11:58:23.575Z,2704
2016-05-10T11:59:23.656Z,2656
2016-05-10T12:00:23.596Z,2536
2016-05-10T12:01:23.442Z,2584
2016-05-10T12:02:23.617Z,2552
2016-05-10T12:03:23.603Z,2528
2016-05-10T12:04:23.606Z,2464
2016-05-10T12:05:23.453Z,2408
2016-05-10T12:06:23.472Z,2368
2016-05-10T12:07:23.475Z,2292
2016-05-10T12:08:23.633Z,2192
2016-05-10T12:09:23.464Z,2108
2016-05-10T12:10:23.498Z,2064
2016-05-10T12:11:23.673Z,2032
2016-05-10T12:12:23.519Z,2028
2016-05-10T12:13:23.678Z,2016
2016-05-10T12:14:23.697Z,1996
2016-05-10T12:15:23.683Z,2020
2016-05-10T12:16:23.561Z,2108
2016-05-10T12:17:23.392Z,2128
2016-05-10T12:18:23.707Z,2152
2016-05-10T12:19:23.726Z,2160
2016-05-10T12:20:23.729Z,2156
2016-05-10T12:21:23.746Z,2172
2016-05-10T12:22:23.593Z,2204
2016-05-10T12:23:23.612Z,2252
2016-05-10T12:24:29.332Z,2296
2016-05-10T12:25:23.618Z,2340
2016-05-10T12:26:23.776Z,2388
2016-05-10T12:27:23.637Z,2400
2016-05-10T12:28:23.797Z,2408
2016-05-10T12:29:28.987Z,2404
2016-05-10T12:30:23.818Z,2412
2016-05-10T12:31:23.821Z,2424
2016-05-10T12:32:23.822Z,2436
2016-05-10T12:33:23.842Z,2440
2016-05-10T12:34:23.829Z,2420
2016-05-10T12:35:23.847Z,2392
2016-05-10T12:36:23.709Z,2380
2016-05-10T12:37:23.696Z,2372
2016-05-10T12:38:23.714Z,2348
2016-05-10T12:39:23.889Z,2308
2016-05-10T12:40:23.891Z,2256
2016-05-10T12:41:23.722Z,2164
2016-05-10T12:42:23.881Z,2088
2016-05-10T12:43:23.900Z,2028
2016-05-10T12:44:24.668Z,1952
2016-05-10T12:45:24.405Z,1888
2016-05-10T12:46:24.688Z,1852
2016-05-10T12:47:23.770Z,1796
2016-05-10T12:48:23.929Z,1716
2016-05-10T12:49:23.947Z,1624
2016-05-10T12:50:23.949Z,1536
2016-05-10T12:51:23.968Z,1456
2016-05-10T12:52:23.986Z,1388
2016-05-10T12:53:23.989Z,1332
2016-05-10T12:54:23.835Z,1272
2016-05-10T12:55:23.993Z,1208
2016-05-10T12:56:23.685Z,1156
2016-05-10T12:57:23.999Z,1116
2016-05-10T12:58:23.877Z,1092
2016-05-10T12:59:23.942Z,1080
2016-05-10T13:00:23.726Z,1076
2016-05-10T13:01:23.729Z,1096
2016-05-10T13:02:24.060Z,1136
2016-05-10T13:03:23.907Z,1200
2016-05-10T13:04:23.909Z,1280
2016-05-10T13:05:23.912Z,1368
2016-05-10T13:06:23.759Z,1464
2016-05-10T13:07:24.073Z,1572
2016-05-10T13:08:23.951Z,1656
2016-05-10T13:09:23.938Z,1736
2016-05-10T13:10:24.128Z,1808
2016-05-10T13:11:24.116Z,1868
2016-05-10T13:12:23.805Z,1928
2016-05-10T13:13:24.121Z,1984
2016-05-10T13:14:24.952Z,2044
2016-05-10T13:15:24.141Z,2072
2016-05-10T13:16:24.144Z,2112
2016-05-10T13:17:24.007Z,2160
2016-05-10T13:18:24.166Z,2180
2016-05-10T13:19:24.168Z,2156
2016-05-10T13:20:24.186Z,2108
2016-05-10T13:21:24.033Z,2036
2016-05-10T13:22:24.036Z,1964
2016-05-10T13:23:24.210Z,1856
2016-05-10T13:24:24.212Z,1744
2016-05-10T13:25:24.216Z,1632
2016-05-10T13:26:24.234Z,1544
2016-05-10T13:27:24.080Z,1468
2016-05-10T13:28:24.239Z,1396
2016-05-10T13:29:24.117Z,1312
2016-05-10T13:30:24.260Z,1232
2016-05-10T13:31:23.966Z,1140
2016-05-10T13:32:24.125Z,1048
2016-05-10T13:33:24.300Z,960
2016-05-10T13:34:24.131Z,864
2016-05-10T13:35:24.289Z,780
2016-05-10T13:36:24.308Z,708
2016-05-10T13:37:24.326Z,660
2016-05-10T13:38:24.314Z,620
2016-05-10T13:39:24.159Z,584
2016-05-10T13:40:24.177Z,552
2016-05-10T13:41:24.352Z,524
2016-05-10T13:42:24.355Z,488
2016-05-10T13:44:02.219Z,460
2016-05-10T13:44:24.360Z,460